Total volume
$2,047
Trades
163
Unique wallets
107
Liquidity
$4,929
Latest YES mid
45¢
Latest NO mid
55¢
End date
2026-05-06
First seen
2026-05-06
last 05-06 03:55
Cohort breakdown
who's buying — by wallet tier SMI: +10.8¢ (top1%: 23% YES on $166 vs crowd: 12% YES on $2.0K)
By volume tier
Tier Wallets YES buy NO buy Net bias
🐟 Fish 5 $48 $111 $63
🦐 Shrimp 102 $188 $1.6K $1.4K
By P&L percentile
Tier Wallets YES buy NO buy Net bias
🎯 Top 1% 4 $38 $128 $90
🏆 Top 5% 18 $71 $590 $519
✅ Top 10% 19 $6 $395 $389
Median 2 $25 $25
Below median 4 $5 $5
⚠️ Bottom 10% 7 $1 $24 $23
🔻 Bottom 5% 16 $17 $71 $54
💀 Bottom 1% 3 $48 $162 $114
unranked 34 $56 $344 $288
Wallet Side Net shares Cost basis Volume Trades Last activity
True-Smell 0x3f89…f737 Down +200 $198 $198 1 05-06 03:55
Irritating-Lamb 0xfc10…a8d5 Down +120 $116 $116 3 05-06 03:55
Thirsty-Adjustment 0x2f32…ada6 Down +104 $102 $102 13 05-06 03:55
Lawful-Hate 0x216e…8600 Down +101 $100 $100 1 05-06 03:55
(anonymous) 0xf13f…bcfb Down +101 $100 $100 1 05-06 03:55
Serene-Impression 0xce05…13c5 Down +101 $100 $100 1 05-06 03:55
Well-Made-Jute 0x60fd…9413 Up +100 $1 $1 1 05-06 03:55
(anonymous) 0xa41e…e39b Down +100 $99 $99 1 05-06 03:55
(anonymous) 0x82b0…22f5 Down +93 $92 $92 1 05-06 03:55
(anonymous) 0xe907…cff6 Down +87 $45 $45 1 05-06 03:48
(anonymous) 0x0b1b…a70b Down +73 $70 $70 5 05-06 03:55
Amusing-Polenta 0xe875…1f35 Down +70 $69 $69 1 05-06 03:55
(anonymous) 0x30f6…1834 Down +67 $66 $66 1 05-06 03:55
(anonymous) 0x75cc…3ce1 Down +63 $39 $39 1 05-06 03:54
(anonymous) 0x4a6a…3105 Up +58 $30 $30 1 05-06 03:54
(anonymous) 0x316e…b55d Down +52 $50 $50 1 05-06 03:55
Genuine-Petal-Amazon 0x1587…0e41 Down +51 $50 $50 1 05-06 03:55
Irritating-Lamb 0xfc10…a8d5 Up +50 $38 $38 1 05-06 03:54
Tall-Baboon-Inhibition 0x738e…e631 Down +50 $50 $50 1 05-06 03:55
Irritating-Reboot 0x035b…3b57 Down +50 $50 $50 1 05-06 03:55
Monstrous-Dew 0x5b63…11a4 Up +47 $36 $36 2 05-06 03:54
(anonymous) 0x6a55…2b27 Down +37 $21 $21 2 05-06 03:54
(anonymous) 0x4a6a…3105 Down +35 $10 $10 1 05-06 03:54
(anonymous) 0x0b1b…a70b Up +33 $26 $26 2 05-06 03:54
Equatorial-Decadence 0xfa17…4f96 Up +31 $15 $15 3 05-06 03:54
Good-Natured-Angora 0x6748…ee08 Down +30 $5 $5 1 05-06 03:54
Lovable-Worship 0xb364…3646 Down +30 $30 $30 1 05-06 03:55
(anonymous) 0x6a30…9eac Down +28 $17 $17 2 05-06 03:54
Murky-Premise 0xade9…1d6e Down +26 $25 $25 1 05-06 03:55
(anonymous) 0x66ec…a8fd Down +24 $24 $24 1 05-06 03:55
Ragged-Milestone 0x7e62…3f0e Up +19 $15 $15 3 05-06 03:54
(anonymous) 0xe907…cff6 Up +19 $10 $10 1 05-06 03:49
Fabulous-Astrologer 0x7b00…de90 Down +19 $17 $17 1 05-06 03:54
Empty-Oat-Trust 0x670b…d4ce Up +17 $2 $2 1 05-06 03:54
Equatorial-Endothelium 0x2e18…a353 Down +16 $3 $3 1 05-06 03:54
Sorrowful-Software 0x93b1…746e Down +15 $3 $3 1 05-06 03:54
Showy-Meander 0x63cc…cecd Up +13 $6 $6 1 05-06 03:54
Any-Eyeball 0x6006…c7e4 Down +13 $12 $12 2 05-06 03:54
(anonymous) 0x1b3d…b7f1 Down +13 $12 $12 1 05-06 03:54
Authentic-Sanctuary 0x0fea…2dd1 Down +12 $2 $2 1 05-06 03:54
(anonymous) 0x76d4…c512 Up +11 $7 $7 2 05-06 03:54
Putrid-Discourse 0xae2f…db23 Up +11 $8 $8 1 05-06 03:54
Palatable-Patent 0x0c7c…e4cb Up +10 $7 $7 5 05-06 03:54
Exalted-Mattress 0xa8cc…41a9 Up +10 $2 $2 1 05-06 03:54
Left-Baboon 0x9656…e340 Up +10 $2 $2 2 05-06 03:55
Lawful-Canoe 0xd581…8331 Up +10 $5 $5 1 05-06 03:54
Bad-Cold 0x23a8…6955 Up +10 $5 $5 1 05-06 03:50
Lovely-Shovel 0x957d…c56b Up +7 $4 $4 2 05-06 03:54
Dual-Competence 0xeaf8…d3eb Up +5 $3 $3 1 05-06 03:54
Full-Tale 0x9273…91ce Up +5 $3 $3 1 05-06 03:54
(anonymous) 0x6fae…a4be Up +4 $2 $2 2 05-06 03:49
Grave-Distance 0x2a85…b70b Up +4 $3 $3 1 05-06 03:54
Severe-Teller 0xd346…4bed Up +4 $2 $2 1 05-06 03:49
Speedy-Temperature 0x26fd…4a12 Up +3 $2 $2 1 05-06 03:54
Decent-Graduation 0x3b70…4936 Up +3 $1 $1 1 05-06 03:54